Juno Beach, Florida
Current Conditions -  °F | °C
As of 10:53 PM on Saturday 25 Oct 2014 (Local Time) from KPBI Reporting Station
Few Clouds Few Clouds  
Wind Chill: 69°   Ceiling: Unl
Heat Index: 69°   Visibility: 10mi
Dew Point: 65°   Wind: 7mph
Humidity: 87%   Direction: 310°NW
Pressure: 29.94"   Gusts: NA
Location:  26.8566°N, 80.0556°W
Report Text: KPBI 260253Z 31006KT 10SM FEW042 21/18 A2994 RMK AO2 SLP137 T02060183 50006
Loading
Personal Weather Stations






























Interactive Weather Map
Tropical Storm Tracking
New forecast layout! Learn more

10-Day Weather Forecast

Advertisements
Track Severe Weather on mobile